createdAt,value
2022-12-11T00:01:41.653Z,42.22
2022-12-11T00:04:10.202Z,36.38
2022-12-11T00:06:38.468Z,27.83
2022-12-11T00:09:06.856Z,31.45
2022-12-11T00:11:35.256Z,33.72
2022-12-11T00:14:04.223Z,33.22
2022-12-11T00:16:32.452Z,35.92
2022-12-11T00:19:00.878Z,34.15
2022-12-11T00:21:29.186Z,28.13
2022-12-11T00:23:57.841Z,19.67
2022-12-11T00:26:27.586Z,35.58
2022-12-11T00:28:57.759Z,30.70
2022-12-11T00:31:26.302Z,26.83
2022-12-11T00:33:55.625Z,30.92
2022-12-11T00:36:26.736Z,38.13
2022-12-11T00:38:55.852Z,34.45
2022-12-11T00:41:24.172Z,36.00
2022-12-11T00:43:52.595Z,30.27
2022-12-11T00:46:21.708Z,29.30
2022-12-11T00:48:49.973Z,26.38
2022-12-11T00:51:19.124Z,29.70
2022-12-11T00:53:47.687Z,43.28
2022-12-11T00:56:24.991Z,39.22
2022-12-11T00:58:53.647Z,39.35
2022-12-11T01:01:24.537Z,43.78
2022-12-11T01:03:54.019Z,35.47
2022-12-11T01:06:25.216Z,44.13
2022-12-11T01:08:55.163Z,45.35
2022-12-11T01:11:23.357Z,51.40
2022-12-11T01:13:51.530Z,46.30
2022-12-11T01:16:19.911Z,38.00
2022-12-11T01:18:48.311Z,40.22
2022-12-11T01:21:16.497Z,31.20
2022-12-11T01:23:44.714Z,33.35
2022-12-11T01:26:15.835Z,29.15
2022-12-11T01:28:45.239Z,35.20
2022-12-11T01:31:15.130Z,27.67
2022-12-11T01:33:43.713Z,30.35
2022-12-11T01:36:18.005Z,46.92
2022-12-11T01:38:47.435Z,40.92
2022-12-11T01:41:17.056Z,34.53
2022-12-11T01:43:58.402Z,35.95
2022-12-11T01:46:27.843Z,32.50
2022-12-11T01:48:56.611Z,30.20
2022-12-11T01:51:25.753Z,24.77
2022-12-11T01:54:01.523Z,22.98
2022-12-11T01:56:31.896Z,28.83
2022-12-11T01:59:04.089Z,30.83
2022-12-11T02:04:04.172Z,27.00
2022-12-11T02:06:41.534Z,32.17
2022-12-11T02:09:19.004Z,35.88
2022-12-11T02:12:21.003Z,32.03
2022-12-11T02:15:04.423Z,37.75
2022-12-11T02:18:26.891Z,31.40
2022-12-11T02:21:11.694Z,29.70
2022-12-11T02:24:06.944Z,29.38
2022-12-11T02:26:55.533Z,35.50
2022-12-11T02:29:52.061Z,26.77
2022-12-11T02:32:59.644Z,34.83
2022-12-11T02:35:38.576Z,28.00
2022-12-11T02:38:15.791Z,33.63
2022-12-11T02:40:45.504Z,32.90
2022-12-11T02:43:17.021Z,33.85
2022-12-11T02:45:47.572Z,41.13
2022-12-11T02:48:17.692Z,35.97
2022-12-11T02:50:53.061Z,33.95
2022-12-11T02:53:24.830Z,28.88
2022-12-11T02:56:27.285Z,32.90
2022-12-11T02:59:01.394Z,29.70
2022-12-11T03:01:30.445Z,30.98
2022-12-11T03:03:59.243Z,31.73
2022-12-11T03:06:42.267Z,32.45
2022-12-11T03:09:10.928Z,32.63
2022-12-11T03:11:39.234Z,34.10
2022-12-11T03:14:08.971Z,37.33
2022-12-11T03:16:52.668Z,36.65
2022-12-11T03:19:40.579Z,40.70
2022-12-11T03:22:34.931Z,39.05
2022-12-11T03:25:08.116Z,36.45
2022-12-11T03:27:48.889Z,36.00
2022-12-11T03:30:22.155Z,44.88
2022-12-11T03:32:56.678Z,40.47
2022-12-11T03:35:36.309Z,42.88
2022-12-11T03:38:12.142Z,41.20
2022-12-11T03:40:42.152Z,37.75
2022-12-11T03:43:12.516Z,44.60
2022-12-11T03:45:42.481Z,44.33
2022-12-11T03:48:12.111Z,54.00
2022-12-11T03:50:42.247Z,58.95
2022-12-11T03:53:12.011Z,59.78
2022-12-11T03:55:41.225Z,70.55
2022-12-11T03:58:09.381Z,61.83
2022-12-11T04:00:38.380Z,58.22
2022-12-11T04:03:12.621Z,54.22
2022-12-11T04:05:47.242Z,63.03
2022-12-11T04:08:16.467Z,61.10
2022-12-11T04:10:44.792Z,56.25
2022-12-11T04:13:14.587Z,59.53
2022-12-11T04:15:42.703Z,59.17
2022-12-11T04:18:11.418Z,53.47
2022-12-11T04:20:40.183Z,58.33
2022-12-11T04:23:19.393Z,57.08
2022-12-11T04:25:47.711Z,52.50
2022-12-11T04:28:16.506Z,53.65
2022-12-11T04:30:50.195Z,57.33
2022-12-11T04:33:18.487Z,56.03
2022-12-11T04:35:47.163Z,68.40
2022-12-11T04:38:15.439Z,54.30
2022-12-11T04:40:43.611Z,58.08
2022-12-11T04:43:11.923Z,53.28
2022-12-11T04:45:39.957Z,59.13
2022-12-11T04:48:08.236Z,63.67
2022-12-11T04:50:36.538Z,67.18
2022-12-11T04:53:04.622Z,62.92
2022-12-11T04:55:32.983Z,63.97
2022-12-11T04:58:01.330Z,69.68
2022-12-11T05:00:29.673Z,67.32
2022-12-11T05:02:57.848Z,78.63
2022-12-11T05:05:26.279Z,72.00
2022-12-11T05:07:54.459Z,75.68
2022-12-11T05:10:22.598Z,73.07
2022-12-11T05:12:50.895Z,78.93
2022-12-11T05:15:19.281Z,71.32
2022-12-11T05:17:47.496Z,80.10
2022-12-11T05:20:16.059Z,67.95
2022-12-11T05:22:44.340Z,55.13
2022-12-11T05:25:12.727Z,54.72
2022-12-11T05:27:41.407Z,60.30
2022-12-11T05:30:10.115Z,55.90
2022-12-11T05:32:38.420Z,47.78
2022-12-11T05:35:07.052Z,59.67
2022-12-11T05:37:36.477Z,46.90
2022-12-11T05:40:05.611Z,55.45
2022-12-11T05:42:35.251Z,49.15
2022-12-11T05:47:46.388Z,54.22
2022-12-11T05:50:14.534Z,56.25
2022-12-11T05:52:42.872Z,47.10
2022-12-11T05:55:11.326Z,52.22
2022-12-11T05:57:39.635Z,55.25
2022-12-11T06:00:08.716Z,40.92
2022-12-11T06:02:37.762Z,42.33
2022-12-11T06:05:06.416Z,40.63
2022-12-11T06:07:34.565Z,45.50
2022-12-11T06:10:02.971Z,30.50
2022-12-11T06:12:31.593Z,45.00
2022-12-11T06:14:59.814Z,45.97
2022-12-11T06:17:28.201Z,47.88
2022-12-11T06:19:56.323Z,39.85
2022-12-11T06:22:24.490Z,42.42
2022-12-11T06:24:52.817Z,56.28
2022-12-11T06:27:21.030Z,49.38
2022-12-11T06:29:50.196Z,36.88
2022-12-11T06:32:19.135Z,44.85
2022-12-11T06:34:47.385Z,45.95
2022-12-11T21:11:58.470Z,160.15
2022-12-11T21:14:27.051Z,165.98
2022-12-11T21:16:55.597Z,133.48
2022-12-11T21:19:23.983Z,161.63
2022-12-11T21:21:52.672Z,174.98
2022-12-11T21:24:24.985Z,169.27
2022-12-11T21:26:54.599Z,174.13
2022-12-11T21:29:24.629Z,127.07
2022-12-11T21:31:53.631Z,98.55
2022-12-11T21:34:25.281Z,57.10
2022-12-11T21:39:22.704Z,79.32
2022-12-11T21:41:50.867Z,52.63
2022-12-11T21:47:07.616Z,69.03
2022-12-11T21:49:37.699Z,88.95
2022-12-11T21:52:06.169Z,67.88
2022-12-11T21:54:34.477Z,84.25
2022-12-11T21:57:02.911Z,121.25
2022-12-11T21:59:31.291Z,74.00
2022-12-11T22:02:00.982Z,98.60
2022-12-11T22:04:29.352Z,77.57
2022-12-11T22:06:57.558Z,48.80
2022-12-11T22:09:26.001Z,55.00
2022-12-11T22:11:58.383Z,58.85
2022-12-11T22:14:27.979Z,47.83
2022-12-11T22:16:56.108Z,54.80
2022-12-11T22:19:27.829Z,71.68
2022-12-11T22:22:00.723Z,54.72
2022-12-11T22:24:29.081Z,43.88
2022-12-11T22:26:57.493Z,39.85
2022-12-11T22:29:25.852Z,46.35
2022-12-11T22:31:54.090Z,75.25
2022-12-11T22:34:22.756Z,84.78
2022-12-11T22:36:51.221Z,108.15
2022-12-11T22:39:19.368Z,88.10
2022-12-11T22:41:47.813Z,56.83
2022-12-11T22:44:18.563Z,40.25
2022-12-11T22:46:50.248Z,38.90
2022-12-11T22:51:48.470Z,47.15
2022-12-11T22:54:16.812Z,49.72
2022-12-11T22:56:45.164Z,50.83
2022-12-11T22:59:13.503Z,71.93
2022-12-11T23:01:42.146Z,70.95
2022-12-11T23:04:10.543Z,58.63
2022-12-11T23:06:38.813Z,43.72
2022-12-11T23:09:07.724Z,60.00
2022-12-11T23:11:38.384Z,52.55
2022-12-11T23:14:09.346Z,60.22
2022-12-11T23:16:38.053Z,54.40
2022-12-11T23:19:07.191Z,51.13
2022-12-11T23:21:36.127Z,37.33
2022-12-11T23:24:05.350Z,58.38
2022-12-11T23:26:33.948Z,39.85
2022-12-11T23:29:02.822Z,45.40
2022-12-11T23:31:31.488Z,59.42
2022-12-11T23:34:00.096Z,52.88
2022-12-11T23:36:29.131Z,45.67
2022-12-11T23:38:57.377Z,58.72
2022-12-11T23:41:26.479Z,45.35
2022-12-11T23:43:54.733Z,60.95
2022-12-11T23:46:24.889Z,59.03
2022-12-11T23:48:54.184Z,114.80
2022-12-11T23:51:24.189Z,97.40
2022-12-11T23:53:53.091Z,74.75
2022-12-11T23:56:24.520Z,62.20
2022-12-11T23:58:54.021Z,57.67
